Time;durP1;ratioP1;P1;durP2;ratioP2;P2;SDS_P1;SDS_P2;PMS_P1;PMS_P2;Temp;Humidity;BMP_temperature;BMP_pressure;BME280_temperature;BME280_humidity;BME280_pressure;Samples;Min_cycle;Max_cycle;Signal;HPM_P1;HPM_P2
2023/07/21 00:02:16;;;;;;;1.98;0.20;;;;;;;14.69;64.65;100235.75;5008035;28;20133;-71
2023/07/21 00:04:43;;;;;;;0.57;0.20;;;;;;;14.69;64.61;100231.34;5008352;28;20045;-72
2023/07/21 00:07:10;;;;;;;0.47;0.17;;;;;;;14.70;64.68;100238.28;5007281;28;20056;-72
2023/07/21 00:09:37;;;;;;;1.35;0.30;;;;;;;14.62;64.63;100227.25;5008039;28;20050;-71
2023/07/21 00:12:04;;;;;;;0.77;0.20;;;;;;;14.69;64.50;100227.84;5007998;28;20052;-71
2023/07/21 00:14:31;;;;;;;0.60;0.13;;;;;;;14.66;64.53;100226.22;5007790;28;20425;-71
2023/07/21 00:16:58;;;;;;;0.22;0.15;;;;;;;14.70;64.45;100233.03;5007979;28;20046;-71
2023/07/21 00:19:26;;;;;;;2.08;0.20;;;;;;;14.68;64.29;100228.75;5007932;28;20056;-72
2023/07/21 00:21:53;;;;;;;0.10;0.10;;;;;;;14.69;64.33;100230.50;5008066;28;20056;-72
2023/07/21 00:24:20;;;;;;;1.00;0.10;;;;;;;14.65;64.32;100223.63;5007819;28;20053;-72
2023/07/21 00:26:47;;;;;;;0.10;0.10;;;;;;;14.69;64.33;100236.59;5007753;28;20053;-71
2023/07/21 00:29:14;;;;;;;1.02;0.20;;;;;;;14.68;64.40;100221.72;5007690;28;20054;-72
2023/07/21 00:31:46;;;;;;;0.63;0.20;;;;;;;14.68;64.68;100234.03;5007650;28;20136;-72
2023/07/21 00:34:13;;;;;;;0.20;0.20;;;;;;;14.68;64.23;100231.38;5005287;28;20100;-72
2023/07/21 00:36:41;;;;;;;2.38;0.20;;;;;;;14.69;64.33;100230.50;5007579;28;20745;-71
2023/07/21 00:39:09;;;;;;;0.22;0.15;;;;;;;14.68;64.55;100228.75;5007366;28;20518;-72
2023/07/21 00:41:36;;;;;;;0.20;0.20;;;;;;;14.66;64.51;100220.06;5007712;28;20058;-72
2023/07/21 00:44:06;;;;;;;0.20;0.10;;;;;;;14.67;64.48;100229.69;5007232;28;20064;-71
2023/07/21 00:46:33;;;;;;;0.10;0.10;;;;;;;14.66;64.50;100228.84;5007636;28;20056;-73
2023/07/21 00:49:00;;;;;;;0.20;0.10;;;;;;;14.59;64.58;100215.09;5005558;28;20053;-71
2023/07/21 00:51:27;;;;;;;0.45;0.20;;;;;;;14.62;64.57;100220.22;5007303;28;20133;-72
2023/07/21 00:53:57;;;;;;;0.85;0.10;;;;;;;14.65;64.57;100218.38;5006910;28;20050;-72
2023/07/21 00:56:23;;;;;;;0.17;0.10;;;;;;;14.55;64.60;100205.66;5007667;28;20050;-72
2023/07/21 00:58:50;;;;;;;1.10;0.10;;;;;;;14.62;64.59;100220.22;5007051;28;20046;-72
2023/07/21 01:01:17;;;;;;;0.20;0.10;;;;;;;14.64;64.56;100221.94;5007179;28;20061;-72
2023/07/21 01:03:44;;;;;;;0.90;0.10;;;;;;;14.61;64.64;100215.91;5007372;28;20046;-71
2023/07/21 01:06:13;;;;;;;0.20;0.15;;;;;;;14.62;64.61;100214.09;5007276;28;20053;-72
2023/07/21 01:08:42;;;;;;;0.70;0.10;;;;;;;14.62;64.65;100214.09;5007233;28;20049;-72
2023/07/21 01:11:10;;;;;;;0.20;0.10;;;;;;;14.61;64.60;100215.03;5006794;28;20060;-72
2023/07/21 01:13:39;;;;;;;0.30;0.10;;;;;;;14.59;64.59;100220.34;5007393;28;20499;-72
2023/07/21 01:16:08;;;;;;;0.45;0.03;;;;;;;14.59;64.60;100219.50;5007474;28;20561;-72
2023/07/21 01:18:36;;;;;;;0.10;0.10;;;;;;;14.60;64.66;100222.09;5007113;28;20734;-71
2023/07/21 01:21:05;;;;;;;1.77;0.10;;;;;;;14.59;64.50;100217.72;5007474;28;20054;-72
2023/07/21 01:23:42;;;;;;;0.13;0.10;;;;;;;14.59;64.75;100215.09;5006969;28;20112;-71
2023/07/21 01:26:12;;;;;;;1.45;0.10;;;;;;;14.60;64.67;100215.97;5006347;28;20046;-71
2023/07/21 01:28:42;;;;;;;0.10;0.10;;;;;;;14.59;64.84;100217.72;5006715;28;20056;-71
2023/07/21 01:31:09;;;;;;;0.30;0.10;;;;;;;14.58;64.91;100207.28;5007384;28;20816;-71
2023/07/21 01:33:38;;;;;;;0.50;0.17;;;;;;;14.60;64.80;100215.97;5006959;28;20054;-72
2023/07/21 01:36:06;;;;;;;2.20;0.10;;;;;;;14.59;64.85;100215.09;5006454;28;20092;-72
2023/07/21 01:38:34;;;;;;;0.30;0.10;;;;;;;14.60;64.76;100215.97;5007096;28;20360;-71
2023/07/21 01:41:02;;;;;;;0.55;0.10;;;;;;;14.60;64.84;100215.97;5006963;28;20042;-71
2023/07/21 01:43:31;;;;;;;0.13;0.10;;;;;;;14.61;64.85;100218.53;5005944;28;20050;-72
2023/07/21 01:45:57;;;;;;;0.90;0.17;;;;;;;14.62;64.57;100214.09;5006394;28;20057;-72
2023/07/21 01:48:25;;;;;;;0.28;0.17;;;;;;;14.60;64.89;100211.56;5010177;28;20058;-71
2023/07/21 01:50:53;;;;;;;0.75;0.10;;;;;;;14.60;64.84;100206.31;5010378;28;20477;-72
2023/07/21 01:53:24;;;;;;;3.40;0.68;;;;;;;14.62;64.82;100214.97;5010497;28;20058;-72
2023/07/21 01:55:58;;;;;;;0.20;0.10;;;;;;;14.63;64.91;100215.84;5010691;28;20050;-72
2023/07/21 01:58:29;;;;;;;2.70;0.10;;;;;;;14.65;64.92;100213.97;5009826;28;20466;-71
2023/07/21 02:00:59;;;;;;;0.10;0.10;;;;;;;14.62;64.89;100214.97;5009465;28;20050;-71
2023/07/21 02:03:27;;;;;;;0.20;0.10;;;;;;;14.66;65.03;100217.44;5009481;28;20060;-72
2023/07/21 02:05:54;;;;;;;0.45;0.10;;;;;;;14.65;64.86;100216.59;5010252;28;20060;-72
2023/07/21 02:08:21;;;;;;;2.90;0.15;;;;;;;14.64;64.92;100212.28;5010095;28;20515;-71
2023/07/21 02:10:48;;;;;;;0.57;0.03;;;;;;;14.67;65.02;100217.41;5010133;28;20049;-71
2023/07/21 02:13:15;;;;;;;0.85;0.00;;;;;;;14.66;64.99;100214.81;5009919;28;20042;-72
2023/07/21 02:15:42;;;;;;;0.10;0.10;;;;;;;14.68;65.01;100218.25;5010299;28;20096;-72
2023/07/21 02:18:11;;;;;;;0.10;0.00;;;;;;;14.65;65.14;100206.09;5008114;28;20054;-71
2023/07/21 02:20:38;;;;;;;0.43;0.10;;;;;;;14.69;64.87;100219.97;5008665;28;20053;-72
2023/07/21 02:23:05;;;;;;;2.05;0.10;;;;;;;14.69;64.88;100212.09;5008256;28;20140;-72
2023/07/21 02:25:32;;;;;;;3.70;0.10;;;;;;;14.61;64.89;100207.16;5010210;28;20071;-72
2023/07/21 02:27:59;;;;;;;0.57;0.10;;;;;;;14.65;64.97;100207.88;5009751;28;20060;-72
2023/07/21 02:30:25;;;;;;;0.22;0.03;;;;;;;14.68;64.91;100212.97;5009965;28;20046;-72
2023/07/21 02:32:52;;;;;;;0.45;0.10;;;;;;;14.70;64.90;100222.50;5008414;28;20477;-72
2023/07/21 02:35:21;;;;;;;0.20;0.10;;;;;;;14.67;64.88;100216.56;5009660;28;20137;-71
2023/07/21 02:37:48;;;;;;;0.40;0.10;;;;;;;14.65;64.67;100218.38;5009900;28;20058;-72
2023/07/21 02:40:17;;;;;;;1.80;0.10;;;;;;;14.68;64.60;100228.75;5009494;28;20060;-71
2023/07/21 02:42:44;;;;;;;1.65;0.10;;;;;;;14.62;64.61;100219.38;5009845;28;20423;-71
2023/07/21 02:45:11;;;;;;;0.10;0.00;;;;;;;14.68;64.59;100228.75;5009397;28;20050;-72
2023/07/21 02:47:39;;;;;;;0.13;0.10;;;;;;;14.63;64.63;100223.72;5009694;28;20054;-72
2023/07/21 02:50:09;;;;;;;1.13;0.00;;;;;;;14.66;64.57;100225.34;5009228;28;20038;-71
2023/07/21 02:52:38;;;;;;;0.00;0.00;;;;;;;14.64;64.56;100232.47;5010511;28;20054;-69
2023/07/21 02:55:07;;;;;;;2.42;0.17;;;;;;;14.63;64.45;100226.34;5007938;28;20080;-69
2023/07/21 02:57:34;;;;;;;1.65;0.15;;;;;;;14.61;64.40;100229.03;5008383;28;20053;-72
2023/07/21 03:00:03;;;;;;;0.00;0.00;;;;;;;14.60;64.62;100229.13;5008803;28;20046;-73
2023/07/21 03:02:33;;;;;;;1.15;0.10;;;;;;;14.59;64.42;100236.13;5009141;28;20050;-73
2023/07/21 03:05:06;;;;;;;1.50;0.00;;;;;;;14.58;64.48;100229.16;5009320;28;20053;-73
2023/07/21 03:07:33;;;;;;;0.68;0.00;;;;;;;14.56;64.67;100236.25;5009217;28;20057;-72
2023/07/21 03:10:01;;;;;;;0.32;0.08;;;;;;;14.55;64.60;100231.94;5008802;28;20046;-73
2023/07/21 03:12:28;;;;;;;1.27;0.00;;;;;;;14.54;64.85;100238.13;5009174;28;20052;-73
2023/07/21 03:14:55;;;;;;;1.08;0.00;;;;;;;14.53;64.74;100241.66;5009046;28;20046;-72
2023/07/21 03:17:22;;;;;;;0.85;0.10;;;;;;;14.54;64.68;100242.50;5007126;28;20522;-73
2023/07/21 03:19:49;;;;;;;1.92;0.20;;;;;;;14.53;64.85;100241.66;5008672;28;20462;-72
2023/07/21 03:22:16;;;;;;;0.60;0.00;;;;;;;14.53;64.93;100243.44;5009037;28;20061;-72
2023/07/21 03:24:43;;;;;;;0.45;0.10;;;;;;;14.51;64.95;100243.44;5006636;28;20119;-72
2023/07/21 03:27:12;;;;;;;0.50;0.00;;;;;;;14.52;65.13;100239.09;5008925;28;20046;-72
2023/07/21 03:29:39;;;;;;;2.63;0.00;;;;;;;14.52;65.20;100247.00;5008748;28;20056;-73
2023/07/21 03:32:07;;;;;;;1.33;0.00;;;;;;;14.52;65.34;100244.38;5008770;28;20478;-73
2023/07/21 03:34:35;;;;;;;0.40;0.05;;;;;;;14.50;65.43;100244.38;5006486;28;20065;-73
2023/07/21 03:37:07;;;;;;;1.35;0.10;;;;;;;14.50;65.45;100239.13;5007927;28;20224;-72
2023/07/21 03:39:34;;;;;;;0.20;0.00;;;;;;;14.50;65.41;100240.91;5006574;28;20071;-72
2023/07/21 03:42:01;;;;;;;1.48;0.00;;;;;;;14.52;65.62;100245.22;5005857;28;20046;-73
2023/07/21 03:44:29;;;;;;;0.60;0.03;;;;;;;14.52;65.66;100247.84;5008403;28;20052;-73
2023/07/21 03:46:56;;;;;;;0.52;0.00;;;;;;;14.53;65.64;100252.16;5008485;28;20060;-73
2023/07/21 03:49:23;;;;;;;1.92;0.10;;;;;;;14.54;65.81;100243.38;5008349;28;20046;-72
2023/07/21 03:51:50;;;;;;;1.38;0.10;;;;;;;14.56;65.84;100243.28;5007356;28;20050;-73
2023/07/21 03:54:17;;;;;;;1.20;0.00;;;;;;;14.58;65.84;100244.09;5008141;28;20045;-73
2023/07/21 03:56:44;;;;;;;0.43;0.00;;;;;;;14.60;65.93;100248.38;5008346;28;20057;-73
2023/07/21 03:59:11;;;;;;;0.88;0.00;;;;;;;14.62;65.94;100241.25;5008187;28;20733;-73
2023/07/21 04:01:40;;;;;;;2.03;0.38;;;;;;;14.66;66.04;100241.09;5007812;28;20054;-73
2023/07/21 04:04:07;;;;;;;0.63;0.00;;;;;;;14.69;65.88;100244.47;5007790;28;20570;-73
2023/07/21 04:06:34;;;;;;;0.98;0.05;;;;;;;14.72;65.93;100239.09;5008015;28;20407;-73
2023/07/21 04:09:01;;;;;;;0.10;0.00;;;;;;;14.76;65.94;100242.44;5007894;28;20085;-73
2023/07/21 04:11:28;;;;;;;4.25;0.10;;;;;;;14.78;65.81;100241.44;5007989;28;20792;-73
2023/07/21 04:13:56;;;;;;;0.20;0.10;;;;;;;14.75;65.83;100231.06;5008289;28;20052;-72
2023/07/21 04:16:23;;;;;;;1.73;0.10;;;;;;;14.86;65.88;100249.00;5007870;28;20077;-73
2023/07/21 04:18:51;;;;;;;0.30;0.00;;;;;;;14.90;65.86;100250.56;5006777;28;20068;-73
2023/07/21 04:21:18;;;;;;;1.98;0.50;;;;;;;14.94;66.08;100257.41;5007590;28;20506;-73
2023/07/21 04:23:45;;;;;;;0.80;0.00;;;;;;;14.98;65.96;100255.47;5008219;28;20046;-74
2023/07/21 04:26:14;;;;;;;5.28;0.10;;;;;;;15.02;65.91;100255.25;5007662;28;20050;-73
2023/07/21 04:28:42;;;;;;;3.47;0.10;;;;;;;15.06;66.08;100248.94;5008235;28;20112;-73
2023/07/21 04:31:09;;;;;;;2.05;0.10;;;;;;;15.12;66.10;100254.84;5007632;28;20514;-73
2023/07/21 04:33:36;;;;;;;1.80;0.10;;;;;;;15.16;66.02;100251.16;5007676;28;20042;-74
2023/07/21 04:36:05;;;;;;;0.40;0.10;;;;;;;15.21;66.31;100252.66;5007718;28;20651;-73
2023/07/21 04:38:32;;;;;;;4.80;0.98;;;;;;;15.27;66.27;100252.34;5007654;28;20041;-73
2023/07/21 04:40:59;;;;;;;2.95;0.10;;;;;;;15.34;66.06;100245.06;5007617;28;20045;-74
2023/07/21 04:43:26;;;;;;;0.85;0.10;;;;;;;15.41;66.28;100249.09;5007622;28;20392;-73
2023/07/21 04:45:55;;;;;;;4.88;0.20;;;;;;;15.49;66.48;100244.31;5008096;28;20498;-73
2023/07/21 04:48:22;;;;;;;4.38;0.55;;;;;;;15.58;66.13;100245.66;5007530;28;20052;-73
2023/07/21 04:50:52;;;;;;;5.15;0.20;;;;;;;15.68;66.31;100251.38;5007379;28;20056;-74
2023/07/21 04:53:21;;;;;;;1.38;0.15;;;;;;;15.78;66.26;100243.88;5006201;28;20060;-73
2023/07/21 04:55:48;;;;;;;0.95;0.10;;;;;;;15.85;66.17;100242.66;5006498;28;20117;-74
2023/07/21 04:58:15;;;;;;;3.78;0.30;;;;;;;15.96;65.93;100243.81;5007355;28;20053;-74
2023/07/21 05:00:41;;;;;;;8.13;0.47;;;;;;;16.07;65.88;100239.81;5005972;28;20038;-74
2023/07/21 05:03:08;;;;;;;2.40;0.20;;;;;;;16.14;65.82;100242.09;5007393;28;20065;-73
2023/07/21 05:05:35;;;;;;;3.35;0.20;;;;;;;16.26;65.25;100245.88;5006297;28;20052;-73
2023/07/21 05:08:02;;;;;;;0.65;0.20;;;;;;;16.37;65.61;100246.19;5007487;28;20694;-74
2023/07/21 05:10:31;;;;;;;2.05;0.20;;;;;;;16.50;65.13;100245.56;5007358;28;20081;-73
2023/07/21 05:12:59;;;;;;;2.15;0.20;;;;;;;16.62;64.84;100248.41;5007406;28;20052;-73
2023/07/21 05:15:26;;;;;;;3.38;0.22;;;;;;;16.67;64.70;100234.97;5007444;28;20062;-74
2023/07/21 05:17:54;;;;;;;4.32;0.20;;;;;;;16.86;64.57;100248.94;5007350;28;20046;-74
2023/07/21 05:20:21;;;;;;;4.72;1.38;;;;;;;16.98;64.06;100254.50;5007057;28;20133;-73
2023/07/21 05:22:49;;;;;;;5.15;0.30;;;;;;;17.10;63.94;100251.19;5010104;28;20050;-73
2023/07/21 05:25:17;;;;;;;3.08;0.30;;;;;;;17.21;63.92;100254.09;5011160;28;20060;-74
2023/07/21 05:27:48;;;;;;;2.30;0.30;;;;;;;17.33;63.67;100247.31;5011249;28;20042;-74
2023/07/21 05:30:15;;;;;;;8.18;0.47;;;;;;;17.44;63.28;100257.28;5010338;28;20062;-73
2023/07/21 05:32:41;;;;;;;3.13;0.30;;;;;;;17.54;63.16;100256.69;5011096;28;20497;-74
2023/07/21 05:35:09;;;;;;;6.90;0.50;;;;;;;17.64;63.02;100257.00;5010668;28;20054;-73
2023/07/21 05:37:36;;;;;;;3.58;0.45;;;;;;;17.74;62.72;100260.00;5011191;28;20042;-74
2023/07/21 05:40:05;;;;;;;6.53;0.30;;;;;;;17.84;62.43;100249.78;5010749;28;20041;-74
2023/07/21 05:42:32;;;;;;;7.25;0.40;;;;;;;17.92;62.26;100245.78;5010725;28;20045;-74
2023/07/21 05:45:00;;;;;;;5.00;0.40;;;;;;;18.01;62.13;100246.19;5010842;28;20095;-73
2023/07/21 05:47:27;;;;;;;3.30;0.30;;;;;;;18.07;61.86;100244.06;5010681;28;20061;-73
2023/07/21 05:50:00;;;;;;;5.10;0.47;;;;;;;18.12;61.56;100249.91;5010888;28;20092;-74
2023/07/21 05:52:27;;;;;;;7.97;0.50;;;;;;;18.22;61.31;100250.25;5010591;28;20038;-73
2023/07/21 05:54:54;;;;;;;2.63;0.60;;;;;;;18.27;61.25;100248.19;5010801;28;20050;-74
2023/07/21 05:57:21;;;;;;;5.60;0.47;;;;;;;18.32;60.94;100240.81;5010701;28;20156;-74
2023/07/21 05:59:48;;;;;;;4.22;0.85;;;;;;;18.37;60.81;100244.03;5010015;28;20060;-74
2023/07/21 06:02:16;;;;;;;6.30;0.40;;;;;;;18.32;60.63;100224.09;5010121;28;20058;-80
2023/07/21 06:04:43;;;;;;;3.60;0.28;;;;;;;18.48;60.64;100248.69;5010289;28;20049;-73
2023/07/21 06:07:10;;;;;;;7.63;0.30;;;;;;;18.49;60.55;100237.16;5010179;28;20410;-73
2023/07/21 06:09:38;;;;;;;5.13;0.38;;;;;;;18.58;60.30;100244.53;5010561;28;20061;-74
2023/07/21 06:12:06;;;;;;;7.63;1.27;;;;;;;18.62;60.06;100243.41;5010152;28;20060;-74
2023/07/21 06:14:34;;;;;;;3.50;0.40;;;;;;;18.66;59.90;100239.63;5010164;28;20049;-74
2023/07/21 06:17:01;;;;;;;5.65;0.35;;;;;;;18.70;60.20;100236.78;5010097;28;20046;-75
2023/07/21 06:19:31;;;;;;;4.38;0.30;;;;;;;18.70;59.78;100242.97;5010049;28;20038;-74
2023/07/21 06:21:58;;;;;;;3.22;0.40;;;;;;;18.71;59.74;100241.16;5010065;28;20092;-74
2023/07/21 06:24:25;;;;;;;3.78;0.40;;;;;;;18.74;59.80;100251.59;5009626;28;20491;-73
2023/07/21 06:26:52;;;;;;;3.38;0.63;;;;;;;18.75;60.14;100240.91;5010430;28;20124;-74
2023/07/21 06:29:18;;;;;;;4.05;0.30;;;;;;;18.76;59.81;100244.41;5009884;28;20056;-74
2023/07/21 06:31:45;;;;;;;5.93;0.52;;;;;;;18.79;59.70;100236.28;5009191;28;20406;-73
2023/07/21 06:34:12;;;;;;;5.97;0.30;;;;;;;18.72;59.79;100226.97;5009846;28;20052;-75
2023/07/21 06:36:41;;;;;;;4.95;0.38;;;;;;;18.84;59.67;100243.00;5009867;28;20056;-74
2023/07/21 06:39:09;;;;;;;5.03;0.40;;;;;;;18.85;59.70;100250.00;5009704;28;20052;-73
2023/07/21 06:41:36;;;;;;;3.38;0.40;;;;;;;18.87;59.35;100247.25;5009164;28;20478;-73
2023/07/21 06:44:02;;;;;;;3.83;0.40;;;;;;;18.89;59.66;100245.34;5009248;28;20049;-73
2023/07/21 06:46:29;;;;;;;3.28;0.70;;;;;;;18.90;59.34;100252.38;5009696;28;20046;-73
2023/07/21 06:48:57;;;;;;;2.33;0.40;;;;;;;18.91;59.38;100248.75;5009661;28;20466;-74
2023/07/21 06:51:24;;;;;;;7.25;0.57;;;;;;;18.92;59.37;100245.16;5009261;28;20144;-74
2023/07/21 06:53:53;;;;;;;5.28;0.40;;;;;;;18.93;59.52;100246.88;5009295;28;20052;-74
2023/07/21 06:56:20;;;;;;;3.47;0.40;;;;;;;18.93;59.47;100241.59;5008223;28;20057;-74
2023/07/21 06:58:47;;;;;;;3.28;0.30;;;;;;;18.93;59.49;100244.22;5009506;28;20050;-73
2023/07/21 07:01:13;;;;;;;6.85;0.35;;;;;;;18.99;59.53;100250.94;5008812;28;20058;-74
2023/07/21 07:03:41;;;;;;;4.32;0.40;;;;;;;19.01;59.02;100249.91;5009440;28;20553;-73
2023/07/21 07:06:07;;;;;;;1.25;0.40;;;;;;;19.03;59.24;100248.00;5009188;28;20054;-73
2023/07/21 07:08:34;;;;;;;2.38;0.50;;;;;;;19.06;59.03;100260.19;5009300;28;20700;-74
2023/07/21 07:11:03;;;;;;;5.15;0.40;;;;;;;19.07;58.96;100249.53;5008144;28;20144;-73
2023/07/21 07:13:30;;;;;;;3.20;0.35;;;;;;;19.15;58.87;100254.31;5008046;28;20053;-74
2023/07/21 07:15:57;;;;;;;4.80;1.30;;;;;;;19.22;58.48;100260.94;5009118;28;20049;-74
2023/07/21 07:18:24;;;;;;;4.88;0.50;;;;;;;19.28;58.41;100259.72;5009064;28;20045;-73
2023/07/21 07:20:52;;;;;;;5.18;0.40;;;;;;;19.36;58.12;100260.09;5009108;28;20638;-73
2023/07/21 07:23:19;;;;;;;2.40;0.30;;;;;;;19.41;58.16;100259.78;5008920;28;20057;-73
2023/07/21 07:25:48;;;;;;;3.15;0.40;;;;;;;19.47;57.94;100251.47;5009192;28;20049;-73
2023/07/21 07:28:17;;;;;;;4.43;0.40;;;;;;;19.57;57.87;100254.38;5009006;28;20046;-74
2023/07/21 07:30:45;;;;;;;1.35;0.30;;;;;;;19.64;57.87;100258.34;5008974;28;20137;-74
2023/07/21 07:33:14;;;;;;;2.92;0.35;;;;;;;19.73;57.83;100263.91;5008675;28;20048;-74
2023/07/21 07:35:48;;;;;;;3.30;0.38;;;;;;;19.77;57.20;100251.28;5007314;28;20053;-74
2023/07/21 07:38:14;;;;;;;1.48;0.28;;;;;;;19.89;56.95;100261.09;5008740;28;20104;-75
2023/07/21 07:40:42;;;;;;;6.13;0.30;;;;;;;19.95;56.76;100258.06;5008762;28;20056;-74
2023/07/21 07:43:09;;;;;;;2.85;0.30;;;;;;;19.92;56.43;100244.13;5008046;28;20131;-74
2023/07/21 07:45:38;;;;;;;4.82;0.40;;;;;;;20.08;56.51;100258.09;5007519;28;20050;-76
2023/07/21 07:48:07;;;;;;;1.02;0.30;;;;;;;20.12;56.38;100256.06;5008830;28;20509;-74
2023/07/21 07:50:37;;;;;;;3.15;0.43;;;;;;;20.22;56.06;100262.47;5008735;28;20085;-73
2023/07/21 07:53:04;;;;;;;0.80;0.32;;;;;;;20.20;55.73;100251.13;5008079;28;20080;-74
2023/07/21 07:55:32;;;;;;;2.58;0.40;;;;;;;20.29;55.33;100261.13;5008354;28;20046;-73
2023/07/21 07:58:01;;;;;;;2.42;0.73;;;;;;;20.36;55.01;100273.00;5008400;28;20134;-74
2023/07/21 08:00:28;;;;;;;2.72;0.30;;;;;;;20.37;55.19;100264.09;5008173;28;20053;-74
2023/07/21 08:02:56;;;;;;;3.30;0.20;;;;;;;20.39;54.86;100264.84;5008129;28;20050;-73
2023/07/21 08:05:23;;;;;;;4.65;0.50;;;;;;;20.42;54.58;100259.31;5008139;28;20096;-74
2023/07/21 08:07:50;;;;;;;6.13;0.40;;;;;;;20.44;54.45;100262.72;5008066;28;20046;-74
2023/07/21 08:10:17;;;;;;;2.13;0.30;;;;;;;20.47;54.69;100250.22;5008149;28;20056;-73
2023/07/21 08:12:44;;;;;;;2.45;0.30;;;;;;;20.50;54.64;100252.66;5007891;28;20056;-74
2023/07/21 08:15:12;;;;;;;1.73;0.28;;;;;;;20.54;54.92;100254.19;5008161;28;20704;-73
2023/07/21 08:17:39;;;;;;;2.03;0.30;;;;;;;20.59;54.59;100257.38;5008062;28;20053;-74
2023/07/21 08:20:09;;;;;;;1.60;0.30;;;;;;;20.64;54.63;100260.56;5006604;28;20748;-73
2023/07/21 08:22:36;;;;;;;2.42;0.20;;;;;;;20.67;54.83;100266.50;5006746;28;20050;-74
2023/07/21 08:25:05;;;;;;;2.72;0.30;;;;;;;20.75;55.21;100268.63;5008015;28;20054;-74
2023/07/21 08:27:34;;;;;;;4.30;0.43;;;;;;;20.81;55.00;100270.03;5007566;28;20125;-74
2023/07/21 08:30:00;;;;;;;2.05;0.30;;;;;;;20.88;54.57;100266.81;5007395;28;20050;-74
2023/07/21 08:32:27;;;;;;;1.70;0.20;;;;;;;20.94;54.21;100267.34;5007229;28;20046;-73
2023/07/21 08:34:56;;;;;;;5.15;0.47;;;;;;;20.99;53.95;100270.53;5007787;28;20046;-74
2023/07/21 08:37:24;;;;;;;2.65;0.30;;;;;;;21.05;53.36;100264.78;5007648;28;20042;-74
2023/07/21 08:39:51;;;;;;;0.80;0.15;;;;;;;21.10;53.65;100273.28;5007832;28;20053;-74
2023/07/21 08:42:19;;;;;;;1.42;0.20;;;;;;;21.16;52.96;100272.84;5007276;28;20492;-74
2023/07/21 08:44:46;;;;;;;7.03;1.67;;;;;;;21.21;52.65;100270.72;5007898;28;20129;-74
2023/07/21 08:47:14;;;;;;;0.82;0.15;;;;;;;21.26;52.28;100273.91;5007425;28;20052;-73
2023/07/21 08:49:40;;;;;;;1.58;0.20;;;;;;;21.23;52.30;100258.19;5007587;28;20052;-74
2023/07/21 08:52:07;;;;;;;2.35;0.20;;;;;;;21.34;51.68;100276.00;5006151;28;20045;-73
2023/07/21 08:54:36;;;;;;;1.38;0.20;;;;;;;21.38;51.69;100271.38;5007712;28;20073;-75
2023/07/21 08:57:04;;;;;;;2.55;0.30;;;;;;;21.37;51.81;100272.31;5007931;28;20056;-73
2023/07/21 08:59:30;;;;;;;5.30;0.30;;;;;;;21.37;51.68;100262.53;5011459;28;20212;-73
2023/07/21 09:01:58;;;;;;;2.13;0.30;;;;;;;21.44;51.32;100258.47;5010435;28;20138;-75
2023/07/21 09:04:26;;;;;;;3.17;0.50;;;;;;;21.49;51.04;100266.13;5011793;28;20053;-75
2023/07/21 09:06:54;;;;;;;1.50;0.10;;;;;;;21.50;49.96;100263.34;5011198;28;20529;-76
2023/07/21 09:09:22;;;;;;;1.58;0.20;;;;;;;21.56;50.58;100272.69;5009763;28;20056;-76
2023/07/21 09:11:51;;;;;;;1.50;0.20;;;;;;;21.55;50.33;100269.19;5011945;28;20053;-76
2023/07/21 09:14:18;;;;;;;5.82;0.60;;;;;;;21.56;50.13;100272.69;5011466;28;20054;-75
2023/07/21 09:16:45;;;;;;;3.35;0.35;;;;;;;21.50;50.00;100270.47;5011855;28;20042;-76
2023/07/21 09:19:11;;;;;;;1.88;0.30;;;;;;;21.55;50.41;100271.00;5011262;28;20049;-78
2023/07/21 09:21:39;;;;;;;1.80;0.40;;;;;;;21.52;50.28;100274.72;5011502;28;20049;-77
2023/07/21 09:24:08;;;;;;;2.80;0.30;;;;;;;21.53;50.84;100273.75;5011295;28;20058;-75
2023/07/21 09:26:36;;;;;;;4.00;0.30;;;;;;;21.52;50.56;100271.22;5011130;28;20056;-76
2023/07/21 09:29:17;;;;;;;3.83;0.20;;;;;;;21.51;50.14;100272.16;5011251;28;20056;-76
2023/07/21 09:31:44;;;;;;;1.80;0.20;;;;;;;21.50;49.52;100278.44;5009827;28;20472;-76
2023/07/21 09:34:11;;;;;;;0.63;0.17;;;;;;;21.51;49.28;100277.47;5010507;28;20076;-76
2023/07/21 09:36:45;;;;;;;1.20;0.20;;;;;;;21.42;49.31;100275.50;5011307;28;20049;-75
2023/07/21 09:39:15;;;;;;;2.63;0.30;;;;;;;21.31;49.74;100263.78;5008799;28;20128;-77
2023/07/21 09:41:43;;;;;;;5.07;0.30;;;;;;;21.43;49.66;100285.16;5011006;28;20065;-76
2023/07/21 09:44:13;;;;;;;4.10;0.30;;;;;;;21.42;50.38;100283.47;5008274;28;20536;-75
2023/07/21 09:46:41;;;;;;;1.38;0.30;;;;;;;21.40;50.64;100286.22;5008680;28;20580;-76
2023/07/21 09:49:08;;;;;;;4.25;0.30;;;;;;;21.41;50.13;100289.75;5010911;28;20090;-76
2023/07/21 09:51:38;;;;;;;2.58;0.30;;;;;;;21.39;50.02;100281.88;5008543;28;20054;-77
2023/07/21 09:54:08;;;;;;;0.70;0.28;;;;;;;21.38;49.78;100284.66;5008283;28;20068;-76
2023/07/21 09:56:41;;;;;;;2.75;0.28;;;;;;;21.34;49.81;100276.88;5008651;28;20100;-76
2023/07/21 09:59:09;;;;;;;2.08;0.85;;;;;;;21.29;50.00;100272.84;5008841;28;20056;-76
2023/07/21 10:01:39;;;;;;;3.60;0.30;;;;;;;21.31;49.85;100277.06;5010719;28;20081;-76
2023/07/21 10:04:06;;;;;;;3.85;1.17;;;;;;;21.23;49.82;100273.25;5010809;28;20050;-76
2023/07/21 10:06:33;;;;;;;1.75;0.30;;;;;;;21.26;49.94;100283.66;5010722;28;20048;-76
2023/07/21 10:09:00;;;;;;;0.60;0.30;;;;;;;21.24;50.11;100291.75;5009980;28;20042;-76
2023/07/21 10:11:28;;;;;;;4.20;0.30;;;;;;;21.10;50.20;100268.81;5010552;28;20054;-76
2023/07/21 10:13:55;;;;;;;2.33;0.40;;;;;;;21.23;50.49;100292.72;5010343;28;20076;-76
2023/07/21 10:16:22;;;;;;;2.00;0.40;;;;;;;21.22;50.60;100285.69;5010702;28;20046;-76
2023/07/21 10:19:08;;;;;;;1.75;0.20;;;;;;;21.25;50.43;100282.81;5010397;28;20060;-76
2023/07/21 10:21:49;;;;;;;1.23;0.20;;;;;;;21.27;50.64;100286.22;5009636;28;20461;-75
2023/07/21 10:24:23;;;;;;;0.93;0.20;;;;;;;21.29;50.64;100281.66;5009881;28;20050;-76
2023/07/21 10:26:56;;;;;;;3.15;0.30;;;;;;;21.31;50.50;100276.22;5010347;28;20130;-76
2023/07/21 10:29:23;;;;;;;4.97;0.65;;;;;;;21.36;50.01;100289.19;5009492;28;20092;-77
2023/07/21 10:31:54;;;;;;;4.60;0.25;;;;;;;21.38;49.63;100284.66;5006173;28;20057;-76
2023/07/21 10:34:26;;;;;;;0.80;0.22;;;;;;;21.40;49.68;100280.91;5009218;28;20807;-76
2023/07/21 10:37:02;;;;;;;1.63;0.20;;;;;;;21.41;49.70;100285.28;5009693;28;20046;-76
2023/07/21 10:39:31;;;;;;;0.88;0.22;;;;;;;21.41;49.23;100276.47;5009798;28;20046;-76
2023/07/21 10:41:59;;;;;;;3.10;0.20;;;;;;;21.44;49.06;100273.59;5009864;28;20054;-77
2023/07/21 10:44:35;;;;;;;2.13;0.30;;;;;;;21.47;49.06;100266.22;5009845;28;20046;-76
2023/07/21 10:47:02;;;;;;;3.92;0.20;;;;;;;21.50;49.53;100270.47;5010181;28;20128;-76
2023/07/21 10:49:30;;;;;;;1.83;0.30;;;;;;;21.53;49.00;100267.59;5009946;28;20046;-77
2023/07/21 10:51:58;;;;;;;4.15;0.30;;;;;;;21.56;48.93;100272.69;5008111;28;20789;-76
2023/07/21 10:54:25;;;;;;;2.70;0.30;;;;;;;21.53;48.62;100265.78;5009297;28;20046;-76
2023/07/21 10:56:52;;;;;;;1.95;0.25;;;;;;;21.56;48.60;100260.25;5009846;28;20054;-76
2023/07/21 10:59:20;;;;;;;1.73;0.20;;;;;;;21.62;47.76;100269.59;5008656;28;20132;-76
2023/07/21 11:01:49;;;;;;;3.17;0.20;;;;;;;21.66;47.29;100265.75;5008984;28;20054;-76
2023/07/21 11:04:17;;;;;;;1.63;0.20;;;;;;;21.68;48.10;100262.97;5008306;28;20050;-76
2023/07/21 11:06:47;;;;;;;0.73;0.20;;;;;;;21.73;47.91;100264.34;5009855;28;20477;-76
2023/07/21 11:09:16;;;;;;;2.35;0.20;;;;;;;21.73;47.51;100256.38;5008146;28;20045;-76
2023/07/21 11:11:45;;;;;;;2.05;0.20;;;;;;;21.77;48.31;100265.81;5009455;28;20119;-77
2023/07/21 11:14:13;;;;;;;0.30;0.17;;;;;;;21.83;47.90;100261.00;5009390;28;20053;-76
2023/07/21 11:16:44;;;;;;;1.40;0.20;;;;;;;21.82;48.00;100249.50;5007716;28;20411;-76
2023/07/21 11:19:11;;;;;;;1.23;0.30;;;;;;;21.91;47.70;100253.31;5008000;28;20057;-76
2023/07/21 11:21:39;;;;;;;2.90;0.30;;;;;;;21.94;47.20;100258.38;5006886;28;20056;-76
2023/07/21 11:24:09;;;;;;;1.90;0.40;;;;;;;21.95;47.73;100246.81;5006754;28;20506;-76
2023/07/21 11:26:36;;;;;;;0.43;0.10;;;;;;;21.98;46.59;100252.75;5009282;28;20057;-76
2023/07/21 11:29:06;;;;;;;1.08;0.25;;;;;;;22.00;46.21;100247.31;5009269;28;20045;-77